Terminal Aerodrome Forecast
Issued by NWS

Home | Current Version | Previous Version | Text Only | Print | Product List | Glossary On
Versions: 1 2 3 4 5 6 7 8 9 10 11 12 13
740
FTPA31 PHFO 131720
TAFHMK
TAF
PHMK 131720Z 1318/1418 03007KT P6SM FEW030
     FM132100 07011G18KT P6SM SCT025
     FM140400 04006KT P6SM FEW025
      AMD NOT SKED=

USA.gov is the U.S. government's official web portal to all federal, state and local government web resources and services.